sensor_id;sensor_type;location;lat;lon;timestamp;P1;durP1;ratioP1;P2;durP2;ratioP2
43845;SDS011;32485;51.112;13.640;2022-07-23T00:04:04;5.82;;;2.60;;
43845;SDS011;32485;51.112;13.640;2022-07-23T00:06:31;3.72;;;3.15;;
43845;SDS011;32485;51.112;13.640;2022-07-23T00:08:59;3.40;;;2.33;;
43845;SDS011;32485;51.112;13.640;2022-07-23T00:11:26;8.35;;;2.78;;
43845;SDS011;32485;51.112;13.640;2022-07-23T00:13:53;3.70;;;2.30;;
43845;SDS011;32485;51.112;13.640;2022-07-23T00:16:22;3.33;;;2.35;;
43845;SDS011;32485;51.112;13.640;2022-07-23T00:18:50;3.58;;;2.40;;
43845;SDS011;32485;51.112;13.640;2022-07-23T00:21:18;3.00;;;2.60;;
43845;SDS011;32485;51.112;13.640;2022-07-23T00:23:45;3.08;;;2.55;;
43845;SDS011;32485;51.112;13.640;2022-07-23T00:26:12;3.05;;;2.35;;
43845;SDS011;32485;51.112;13.640;2022-07-23T00:28:39;3.55;;;2.55;;
43845;SDS011;32485;51.112;13.640;2022-07-23T00:31:06;4.00;;;2.80;;
43845;SDS011;32485;51.112;13.640;2022-07-23T00:33:33;3.60;;;2.80;;
43845;SDS011;32485;51.112;13.640;2022-07-23T00:36:00;6.82;;;2.85;;
43845;SDS011;32485;51.112;13.640;2022-07-23T00:38:29;3.10;;;2.80;;
43845;SDS011;32485;51.112;13.640;2022-07-23T00:40:56;4.95;;;2.90;;
43845;SDS011;32485;51.112;13.640;2022-07-23T00:43:23;3.03;;;2.50;;
43845;SDS011;32485;51.112;13.640;2022-07-23T00:45:51;3.63;;;2.75;;
43845;SDS011;32485;51.112;13.640;2022-07-23T00:48:18;3.10;;;2.45;;
43845;SDS011;32485;51.112;13.640;2022-07-23T00:50:45;3.47;;;3.00;;
43845;SDS011;32485;51.112;13.640;2022-07-23T00:53:12;5.25;;;2.92;;
43845;SDS011;32485;51.112;13.640;2022-07-23T00:55:44;3.55;;;2.95;;
43845;SDS011;32485;51.112;13.640;2022-07-23T00:58:11;3.90;;;3.50;;
43845;SDS011;32485;51.112;13.640;2022-07-23T01:00:39;5.15;;;3.10;;
43845;SDS011;32485;51.112;13.640;2022-07-23T01:03:06;3.83;;;3.08;;
43845;SDS011;32485;51.112;13.640;2022-07-23T01:05:33;3.85;;;2.90;;
43845;SDS011;32485;51.112;13.640;2022-07-23T01:08:00;3.40;;;2.80;;
43845;SDS011;32485;51.112;13.640;2022-07-23T01:10:28;3.45;;;2.95;;
43845;SDS011;32485;51.112;13.640;2022-07-23T01:15:27;4.00;;;3.30;;
43845;SDS011;32485;51.112;13.640;2022-07-23T01:17:55;4.53;;;3.00;;
43845;SDS011;32485;51.112;13.640;2022-07-23T01:20:22;3.40;;;3.03;;
43845;SDS011;32485;51.112;13.640;2022-07-23T01:22:51;6.28;;;2.70;;
43845;SDS011;32485;51.112;13.640;2022-07-23T01:25:19;4.03;;;3.22;;
43845;SDS011;32485;51.112;13.640;2022-07-23T01:27:46;4.13;;;2.80;;
43845;SDS011;32485;51.112;13.640;2022-07-23T01:30:14;4.05;;;2.90;;
43845;SDS011;32485;51.112;13.640;2022-07-23T01:32:41;4.15;;;2.80;;
43845;SDS011;32485;51.112;13.640;2022-07-23T01:35:09;3.83;;;3.40;;
43845;SDS011;32485;51.112;13.640;2022-07-23T01:37:36;3.95;;;3.05;;
43845;SDS011;32485;51.112;13.640;2022-07-23T01:40:06;4.68;;;3.60;;
43845;SDS011;32485;51.112;13.640;2022-07-23T01:42:33;3.92;;;3.22;;
43845;SDS011;32485;51.112;13.640;2022-07-23T01:45:01;4.85;;;3.30;;
43845;SDS011;32485;51.112;13.640;2022-07-23T01:47:30;3.58;;;3.08;;
43845;SDS011;32485;51.112;13.640;2022-07-23T01:49:57;5.20;;;3.33;;
43845;SDS011;32485;51.112;13.640;2022-07-23T01:52:24;4.15;;;3.30;;
43845;SDS011;32485;51.112;13.640;2022-07-23T01:54:51;4.97;;;3.13;;
43845;SDS011;32485;51.112;13.640;2022-07-23T01:57:19;3.70;;;2.80;;
43845;SDS011;32485;51.112;13.640;2022-07-23T01:59:46;4.05;;;3.35;;
43845;SDS011;32485;51.112;13.640;2022-07-23T02:02:14;3.35;;;3.03;;
43845;SDS011;32485;51.112;13.640;2022-07-23T02:04:41;3.83;;;2.97;;
43845;SDS011;32485;51.112;13.640;2022-07-23T02:07:08;3.90;;;3.20;;
43845;SDS011;32485;51.112;13.640;2022-07-23T02:09:35;4.93;;;3.45;;
43845;SDS011;32485;51.112;13.640;2022-07-23T02:12:02;6.35;;;3.30;;
43845;SDS011;32485;51.112;13.640;2022-07-23T02:14:31;4.20;;;3.53;;
43845;SDS011;32485;51.112;13.640;2022-07-23T02:16:58;7.22;;;3.47;;
43845;SDS011;32485;51.112;13.640;2022-07-23T02:19:26;3.58;;;3.15;;
43845;SDS011;32485;51.112;13.640;2022-07-23T02:21:54;5.60;;;4.07;;
43845;SDS011;32485;51.112;13.640;2022-07-23T02:24:21;4.72;;;3.65;;
43845;SDS011;32485;51.112;13.640;2022-07-23T02:26:48;4.10;;;3.38;;
43845;SDS011;32485;51.112;13.640;2022-07-23T02:29:15;5.07;;;3.63;;
43845;SDS011;32485;51.112;13.640;2022-07-23T02:31:43;4.28;;;3.28;;
43845;SDS011;32485;51.112;13.640;2022-07-23T02:34:11;5.55;;;3.55;;
43845;SDS011;32485;51.112;13.640;2022-07-23T02:36:38;4.15;;;3.67;;
43845;SDS011;32485;51.112;13.640;2022-07-23T02:39:06;5.18;;;3.35;;
43845;SDS011;32485;51.112;13.640;2022-07-23T02:41:33;3.90;;;3.50;;
43845;SDS011;32485;51.112;13.640;2022-07-23T02:44:00;3.85;;;3.45;;
43845;SDS011;32485;51.112;13.640;2022-07-23T02:46:27;3.78;;;3.38;;
43845;SDS011;32485;51.112;13.640;2022-07-23T02:48:55;3.88;;;2.88;;
43845;SDS011;32485;51.112;13.640;2022-07-23T02:51:22;5.25;;;3.45;;
43845;SDS011;32485;51.112;13.640;2022-07-23T02:53:49;4.32;;;3.40;;
43845;SDS011;32485;51.112;13.640;2022-07-23T02:56:17;5.80;;;3.20;;
43845;SDS011;32485;51.112;13.640;2022-07-23T02:58:44;3.97;;;3.35;;
43845;SDS011;32485;51.112;13.640;2022-07-23T03:01:11;5.18;;;3.58;;
43845;SDS011;32485;51.112;13.640;2022-07-23T03:03:38;4.28;;;3.60;;
43845;SDS011;32485;51.112;13.640;2022-07-23T03:06:06;3.47;;;3.08;;
43845;SDS011;32485;51.112;13.640;2022-07-23T03:08:33;4.22;;;3.17;;
43845;SDS011;32485;51.112;13.640;2022-07-23T03:11:00;4.75;;;3.70;;
43845;SDS011;32485;51.112;13.640;2022-07-23T03:13:28;4.00;;;3.47;;
43845;SDS011;32485;51.112;13.640;2022-07-23T03:15:55;3.80;;;3.05;;
43845;SDS011;32485;51.112;13.640;2022-07-23T03:18:22;3.78;;;2.92;;
43845;SDS011;32485;51.112;13.640;2022-07-23T03:20:49;3.67;;;3.00;;
43845;SDS011;32485;51.112;13.640;2022-07-23T03:23:18;3.40;;;3.10;;
43845;SDS011;32485;51.112;13.640;2022-07-23T03:25:45;3.85;;;3.13;;
43845;SDS011;32485;51.112;13.640;2022-07-23T03:28:13;3.55;;;2.78;;
43845;SDS011;32485;51.112;13.640;2022-07-23T03:30:40;4.18;;;3.05;;
43845;SDS011;32485;51.112;13.640;2022-07-23T03:33:08;5.10;;;3.05;;
43845;SDS011;32485;51.112;13.640;2022-07-23T03:35:35;4.70;;;2.95;;
43845;SDS011;32485;51.112;13.640;2022-07-23T03:38:02;3.97;;;3.17;;
43845;SDS011;32485;51.112;13.640;2022-07-23T03:40:31;3.30;;;3.00;;
43845;SDS011;32485;51.112;13.640;2022-07-23T03:42:58;4.07;;;3.42;;
43845;SDS011;32485;51.112;13.640;2022-07-23T03:45:25;4.88;;;3.88;;
43845;SDS011;32485;51.112;13.640;2022-07-23T03:47:52;4.25;;;3.58;;
43845;SDS011;32485;51.112;13.640;2022-07-23T03:50:19;4.07;;;3.67;;
43845;SDS011;32485;51.112;13.640;2022-07-23T03:52:46;3.47;;;3.17;;
43845;SDS011;32485;51.112;13.640;2022-07-23T03:55:14;4.68;;;3.80;;
43845;SDS011;32485;51.112;13.640;2022-07-23T03:57:42;3.53;;;3.13;;
43845;SDS011;32485;51.112;13.640;2022-07-23T04:00:10;4.32;;;3.78;;
43845;SDS011;32485;51.112;13.640;2022-07-23T04:02:39;4.50;;;3.40;;
43845;SDS011;32485;51.112;13.640;2022-07-23T04:05:07;5.88;;;3.90;;
43845;SDS011;32485;51.112;13.640;2022-07-23T04:07:34;6.05;;;3.30;;
43845;SDS011;32485;51.112;13.640;2022-07-23T04:10:01;4.22;;;3.70;;
43845;SDS011;32485;51.112;13.640;2022-07-23T04:12:29;4.45;;;3.42;;
43845;SDS011;32485;51.112;13.640;2022-07-23T04:14:58;3.97;;;3.28;;
43845;SDS011;32485;51.112;13.640;2022-07-23T04:17:25;4.00;;;3.60;;
43845;SDS011;32485;51.112;13.640;2022-07-23T04:19:53;4.43;;;3.40;;
43845;SDS011;32485;51.112;13.640;2022-07-23T04:22:20;5.07;;;3.95;;
43845;SDS011;32485;51.112;13.640;2022-07-23T04:24:47;4.63;;;3.63;;
43845;SDS011;32485;51.112;13.640;2022-07-23T04:27:15;6.47;;;3.55;;
43845;SDS011;32485;51.112;13.640;2022-07-23T04:29:42;10.32;;;3.83;;
43845;SDS011;32485;51.112;13.640;2022-07-23T04:32:11;6.38;;;3.88;;
43845;SDS011;32485;51.112;13.640;2022-07-23T04:34:38;3.83;;;3.42;;
43845;SDS011;32485;51.112;13.640;2022-07-23T04:37:05;5.25;;;3.83;;
43845;SDS011;32485;51.112;13.640;2022-07-23T04:39:32;4.53;;;3.58;;
43845;SDS011;32485;51.112;13.640;2022-07-23T04:41:59;3.92;;;3.40;;
43845;SDS011;32485;51.112;13.640;2022-07-23T04:44:26;5.82;;;3.45;;
43845;SDS011;32485;51.112;13.640;2022-07-23T04:46:54;4.80;;;3.45;;
43845;SDS011;32485;51.112;13.640;2022-07-23T04:49:22;5.95;;;3.67;;
43845;SDS011;32485;51.112;13.640;2022-07-23T04:51:49;4.10;;;3.53;;
43845;SDS011;32485;51.112;13.640;2022-07-23T04:54:16;5.97;;;3.63;;
43845;SDS011;32485;51.112;13.640;2022-07-23T04:56:43;4.68;;;3.45;;
43845;SDS011;32485;51.112;13.640;2022-07-23T04:59:10;5.47;;;3.67;;
43845;SDS011;32485;51.112;13.640;2022-07-23T05:01:37;6.88;;;3.28;;
43845;SDS011;32485;51.112;13.640;2022-07-23T05:04:04;3.83;;;3.13;;
43845;SDS011;32485;51.112;13.640;2022-07-23T05:06:33;6.28;;;3.90;;
43845;SDS011;32485;51.112;13.640;2022-07-23T05:09:00;4.88;;;3.10;;
43845;SDS011;32485;51.112;13.640;2022-07-23T05:11:27;3.85;;;3.38;;
43845;SDS011;32485;51.112;13.640;2022-07-23T05:13:54;5.03;;;3.55;;
43845;SDS011;32485;51.112;13.640;2022-07-23T05:16:21;5.25;;;3.58;;
43845;SDS011;32485;51.112;13.640;2022-07-23T05:18:48;4.15;;;3.45;;
43845;SDS011;32485;51.112;13.640;2022-07-23T05:21:15;4.03;;;3.50;;
43845;SDS011;32485;51.112;13.640;2022-07-23T05:23:44;4.80;;;4.30;;
43845;SDS011;32485;51.112;13.640;2022-07-23T05:26:11;4.53;;;3.67;;
43845;SDS011;32485;51.112;13.640;2022-07-23T05:28:38;4.40;;;3.90;;
43845;SDS011;32485;51.112;13.640;2022-07-23T05:31:05;8.90;;;3.92;;
43845;SDS011;32485;51.112;13.640;2022-07-23T05:33:32;5.50;;;3.60;;
43845;SDS011;32485;51.112;13.640;2022-07-23T05:36:00;4.32;;;3.67;;
43845;SDS011;32485;51.112;13.640;2022-07-23T05:38:28;4.25;;;3.80;;
43845;SDS011;32485;51.112;13.640;2022-07-23T05:40:57;4.63;;;3.83;;
43845;SDS011;32485;51.112;13.640;2022-07-23T05:43:25;8.55;;;4.70;;
43845;SDS011;32485;51.112;13.640;2022-07-23T05:45:52;5.68;;;4.53;;
43845;SDS011;32485;51.112;13.640;2022-07-23T05:48:19;6.72;;;4.95;;
43845;SDS011;32485;51.112;13.640;2022-07-23T05:50:47;8.23;;;6.35;;
43845;SDS011;32485;51.112;13.640;2022-07-23T05:53:14;6.55;;;5.32;;
43845;SDS011;32485;51.112;13.640;2022-07-23T05:55:41;7.30;;;5.32;;
43845;SDS011;32485;51.112;13.640;2022-07-23T05:58:10;8.15;;;5.78;;
43845;SDS011;32485;51.112;13.640;2022-07-23T06:00:37;6.60;;;5.65;;
43845;SDS011;32485;51.112;13.640;2022-07-23T06:03:04;7.35;;;6.20;;
43845;SDS011;32485;51.112;13.640;2022-07-23T06:05:33;6.28;;;5.38;;
43845;SDS011;32485;51.112;13.640;2022-07-23T06:08:00;7.72;;;6.35;;
43845;SDS011;32485;51.112;13.640;2022-07-23T06:10:27;9.77;;;7.05;;
43845;SDS011;32485;51.112;13.640;2022-07-23T06:12:54;7.82;;;5.90;;
43845;SDS011;32485;51.112;13.640;2022-07-23T06:15:23;6.57;;;5.80;;
43845;SDS011;32485;51.112;13.640;2022-07-23T06:17:50;8.43;;;6.78;;
43845;SDS011;32485;51.112;13.640;2022-07-23T06:20:17;7.70;;;6.10;;
43845;SDS011;32485;51.112;13.640;2022-07-23T06:22:44;9.13;;;6.43;;
43845;SDS011;32485;51.112;13.640;2022-07-23T06:25:12;8.30;;;6.53;;
43845;SDS011;32485;51.112;13.640;2022-07-23T06:27:39;8.70;;;6.38;;
43845;SDS011;32485;51.112;13.640;2022-07-23T06:30:11;9.52;;;6.78;;
43845;SDS011;32485;51.112;13.640;2022-07-23T06:32:42;7.15;;;5.93;;
43845;SDS011;32485;51.112;13.640;2022-07-23T06:35:09;8.50;;;6.85;;
43845;SDS011;32485;51.112;13.640;2022-07-23T06:37:36;6.80;;;5.63;;
43845;SDS011;32485;51.112;13.640;2022-07-23T06:40:04;8.80;;;6.57;;
43845;SDS011;32485;51.112;13.640;2022-07-23T06:42:32;7.10;;;6.40;;
43845;SDS011;32485;51.112;13.640;2022-07-23T06:45:01;7.40;;;6.05;;
43845;SDS011;32485;51.112;13.640;2022-07-23T06:47:29;8.02;;;6.18;;
43845;SDS011;32485;51.112;13.640;2022-07-23T06:49:57;8.85;;;5.53;;
43845;SDS011;32485;51.112;13.640;2022-07-23T06:52:25;7.32;;;5.13;;
43845;SDS011;32485;51.112;13.640;2022-07-23T06:54:52;7.13;;;5.15;;
43845;SDS011;32485;51.112;13.640;2022-07-23T06:57:19;7.90;;;5.03;;
43845;SDS011;32485;51.112;13.640;2022-07-23T06:59:46;7.32;;;5.05;;
43845;SDS011;32485;51.112;13.640;2022-07-23T07:02:13;6.35;;;4.63;;
43845;SDS011;32485;51.112;13.640;2022-07-23T07:04:40;5.82;;;4.50;;
43845;SDS011;32485;51.112;13.640;2022-07-23T07:07:09;7.30;;;4.68;;
43845;SDS011;32485;51.112;13.640;2022-07-23T07:09:37;10.17;;;5.13;;
43845;SDS011;32485;51.112;13.640;2022-07-23T07:12:04;9.98;;;5.28;;
43845;SDS011;32485;51.112;13.640;2022-07-23T07:14:32;6.93;;;5.20;;
43845;SDS011;32485;51.112;13.640;2022-07-23T07:16:59;6.20;;;4.55;;
43845;SDS011;32485;51.112;13.640;2022-07-23T07:19:26;6.88;;;4.70;;
43845;SDS011;32485;51.112;13.640;2022-07-23T07:21:53;7.40;;;4.97;;
43845;SDS011;32485;51.112;13.640;2022-07-23T07:24:21;5.97;;;4.78;;
43845;SDS011;32485;51.112;13.640;2022-07-23T07:26:48;9.38;;;5.32;;
43845;SDS011;32485;51.112;13.640;2022-07-23T07:29:15;6.13;;;4.68;;
43845;SDS011;32485;51.112;13.640;2022-07-23T07:31:43;7.68;;;5.22;;
43845;SDS011;32485;51.112;13.640;2022-07-23T07:34:10;5.55;;;4.38;;
43845;SDS011;32485;51.112;13.640;2022-07-23T07:36:37;8.13;;;4.53;;
43845;SDS011;32485;51.112;13.640;2022-07-23T07:39:04;6.10;;;4.47;;
43845;SDS011;32485;51.112;13.640;2022-07-23T07:41:33;5.20;;;4.15;;
43845;SDS011;32485;51.112;13.640;2022-07-23T07:44:00;7.70;;;4.43;;
43845;SDS011;32485;51.112;13.640;2022-07-23T07:46:27;6.10;;;4.45;;
43845;SDS011;32485;51.112;13.640;2022-07-23T07:48:55;5.70;;;4.10;;
43845;SDS011;32485;51.112;13.640;2022-07-23T07:51:22;5.32;;;3.72;;
43845;SDS011;32485;51.112;13.640;2022-07-23T07:53:49;13.23;;;3.75;;
43845;SDS011;32485;51.112;13.640;2022-07-23T07:56:16;5.45;;;4.15;;
43845;SDS011;32485;51.112;13.640;2022-07-23T07:58:45;6.00;;;4.20;;
43845;SDS011;32485;51.112;13.640;2022-07-23T08:01:12;5.63;;;4.15;;
43845;SDS011;32485;51.112;13.640;2022-07-23T08:03:39;5.72;;;3.55;;
43845;SDS011;32485;51.112;13.640;2022-07-23T08:06:06;6.57;;;4.45;;
43845;SDS011;32485;51.112;13.640;2022-07-23T08:08:33;9.73;;;3.60;;
43845;SDS011;32485;51.112;13.640;2022-07-23T08:11:00;4.40;;;3.13;;
43845;SDS011;32485;51.112;13.640;2022-07-23T08:13:27;6.68;;;4.05;;
43845;SDS011;32485;51.112;13.640;2022-07-23T08:15:56;6.00;;;3.80;;
43845;SDS011;32485;51.112;13.640;2022-07-23T08:18:23;4.78;;;3.53;;
43845;SDS011;32485;51.112;13.640;2022-07-23T08:20:50;7.38;;;4.05;;
43845;SDS011;32485;51.112;13.640;2022-07-23T08:23:17;5.10;;;4.00;;
43845;SDS011;32485;51.112;13.640;2022-07-23T08:25:45;5.15;;;3.28;;
43845;SDS011;32485;51.112;13.640;2022-07-23T08:28:13;4.68;;;3.30;;
43845;SDS011;32485;51.112;13.640;2022-07-23T08:30:41;5.20;;;3.50;;
43845;SDS011;32485;51.112;13.640;2022-07-23T08:33:12;6.03;;;3.75;;
43845;SDS011;32485;51.112;13.640;2022-07-23T08:35:42;4.93;;;4.07;;
43845;SDS011;32485;51.112;13.640;2022-07-23T08:38:12;5.80;;;3.90;;
43845;SDS011;32485;51.112;13.640;2022-07-23T08:40:42;4.63;;;3.50;;
43845;SDS011;32485;51.112;13.640;2022-07-23T08:43:12;6.15;;;4.13;;
43845;SDS011;32485;51.112;13.640;2022-07-23T08:45:43;5.38;;;3.75;;
43845;SDS011;32485;51.112;13.640;2022-07-23T08:48:13;9.80;;;4.22;;
43845;SDS011;32485;51.112;13.640;2022-07-23T08:50:44;4.90;;;3.75;;
43845;SDS011;32485;51.112;13.640;2022-07-23T08:53:13;4.57;;;3.47;;
43845;SDS011;32485;51.112;13.640;2022-07-23T08:55:43;5.43;;;3.67;;
43845;SDS011;32485;51.112;13.640;2022-07-23T08:58:11;4.63;;;3.65;;
43845;SDS011;32485;51.112;13.640;2022-07-23T09:00:38;4.43;;;3.70;;
43845;SDS011;32485;51.112;13.640;2022-07-23T09:03:06;5.57;;;3.70;;
43845;SDS011;32485;51.112;13.640;2022-07-23T09:05:34;5.13;;;4.00;;
43845;SDS011;32485;51.112;13.640;2022-07-23T09:08:05;5.63;;;4.28;;
43845;SDS011;32485;51.112;13.640;2022-07-23T09:10:42;5.35;;;3.97;;
43845;SDS011;32485;51.112;13.640;2022-07-23T09:13:34;6.65;;;4.32;;
43845;SDS011;32485;51.112;13.640;2022-07-23T09:16:05;6.03;;;4.60;;
43845;SDS011;32485;51.112;13.640;2022-07-23T09:18:39;9.25;;;3.92;;
43845;SDS011;32485;51.112;13.640;2022-07-23T09:21:14;8.38;;;4.85;;
43845;SDS011;32485;51.112;13.640;2022-07-23T09:23:49;5.35;;;4.43;;
43845;SDS011;32485;51.112;13.640;2022-07-23T09:26:24;6.65;;;4.20;;
43845;SDS011;32485;51.112;13.640;2022-07-23T09:28:57;4.53;;;3.53;;
43845;SDS011;32485;51.112;13.640;2022-07-23T09:31:31;4.55;;;3.75;;
43845;SDS011;32485;51.112;13.640;2022-07-23T09:34:09;5.20;;;3.88;;
43845;SDS011;32485;51.112;13.640;2022-07-23T09:36:42;8.02;;;4.82;;
43845;SDS011;32485;51.112;13.640;2022-07-23T09:39:10;6.43;;;4.38;;
43845;SDS011;32485;51.112;13.640;2022-07-23T09:41:40;5.30;;;3.38;;
43845;SDS011;32485;51.112;13.640;2022-07-23T09:44:09;5.95;;;4.00;;
43845;SDS011;32485;51.112;13.640;2022-07-23T09:46:41;9.02;;;4.00;;
43845;SDS011;32485;51.112;13.640;2022-07-23T09:49:10;4.60;;;3.80;;
43845;SDS011;32485;51.112;13.640;2022-07-23T09:51:44;5.68;;;4.03;;
43845;SDS011;32485;51.112;13.640;2022-07-23T09:54:27;6.65;;;4.70;;
43845;SDS011;32485;51.112;13.640;2022-07-23T09:57:00;6.78;;;4.00;;
43845;SDS011;32485;51.112;13.640;2022-07-23T09:59:32;4.75;;;4.03;;
43845;SDS011;32485;51.112;13.640;2022-07-23T10:04:30;6.28;;;3.70;;
43845;SDS011;32485;51.112;13.640;2022-07-23T10:07:00;6.43;;;3.88;;
43845;SDS011;32485;51.112;13.640;2022-07-23T10:09:32;6.78;;;3.70;;
43845;SDS011;32485;51.112;13.640;2022-07-23T10:12:03;5.13;;;3.55;;
43845;SDS011;32485;51.112;13.640;2022-07-23T10:14:39;4.68;;;4.05;;
43845;SDS011;32485;51.112;13.640;2022-07-23T10:17:07;5.60;;;3.90;;
43845;SDS011;32485;51.112;13.640;2022-07-23T10:19:35;6.38;;;4.07;;
43845;SDS011;32485;51.112;13.640;2022-07-23T10:22:06;5.32;;;4.22;;
43845;SDS011;32485;51.112;13.640;2022-07-23T10:24:45;4.95;;;4.00;;
43845;SDS011;32485;51.112;13.640;2022-07-23T10:30:22;6.05;;;3.97;;
43845;SDS011;32485;51.112;13.640;2022-07-23T10:33:05;5.72;;;3.58;;
43845;SDS011;32485;51.112;13.640;2022-07-23T10:35:54;5.15;;;3.88;;
43845;SDS011;32485;51.112;13.640;2022-07-23T10:38:30;4.97;;;3.83;;
43845;SDS011;32485;51.112;13.640;2022-07-23T10:41:04;9.20;;;4.30;;
43845;SDS011;32485;51.112;13.640;2022-07-23T10:43:31;6.30;;;3.88;;
43845;SDS011;32485;51.112;13.640;2022-07-23T10:54:51;6.07;;;4.40;;
43845;SDS011;32485;51.112;13.640;2022-07-23T10:57:21;5.15;;;3.83;;
43845;SDS011;32485;51.112;13.640;2022-07-23T11:02:48;9.30;;;3.80;;
43845;SDS011;32485;51.112;13.640;2022-07-23T11:05:18;5.10;;;3.90;;
43845;SDS011;32485;51.112;13.640;2022-07-23T11:10:44;4.38;;;3.38;;
43845;SDS011;32485;51.112;13.640;2022-07-23T11:16:21;5.03;;;3.63;;
43845;SDS011;32485;51.112;13.640;2022-07-23T11:18:57;5.55;;;3.83;;
43845;SDS011;32485;51.112;13.640;2022-07-23T11:21:45;6.20;;;3.70;;
43845;SDS011;32485;51.112;13.640;2022-07-23T11:24:18;4.85;;;3.55;;
43845;SDS011;32485;51.112;13.640;2022-07-23T11:26:50;5.82;;;4.22;;
43845;SDS011;32485;51.112;13.640;2022-07-23T11:29:37;5.68;;;3.83;;
43845;SDS011;32485;51.112;13.640;2022-07-23T11:35:18;5.03;;;3.80;;
43845;SDS011;32485;51.112;13.640;2022-07-23T11:37:51;4.63;;;3.83;;
43845;SDS011;32485;51.112;13.640;2022-07-23T11:40:24;5.25;;;4.07;;
43845;SDS011;32485;51.112;13.640;2022-07-23T11:42:55;5.00;;;4.50;;
43845;SDS011;32485;51.112;13.640;2022-07-23T11:45:25;5.63;;;4.65;;
43845;SDS011;32485;51.112;13.640;2022-07-23T11:47:59;6.38;;;4.45;;
43845;SDS011;32485;51.112;13.640;2022-07-23T11:50:26;5.95;;;4.70;;
43845;SDS011;32485;51.112;13.640;2022-07-23T11:52:54;6.05;;;4.72;;
43845;SDS011;32485;51.112;13.640;2022-07-23T11:55:21;7.00;;;5.55;;
43845;SDS011;32485;51.112;13.640;2022-07-23T11:57:50;6.93;;;4.88;;
43845;SDS011;32485;51.112;13.640;2022-07-23T12:00:21;8.27;;;4.88;;
43845;SDS011;32485;51.112;13.640;2022-07-23T12:02:51;6.60;;;4.63;;
43845;SDS011;32485;51.112;13.640;2022-07-23T12:05:22;5.80;;;4.55;;
43845;SDS011;32485;51.112;13.640;2022-07-23T12:10:23;5.80;;;4.93;;
43845;SDS011;32485;51.112;13.640;2022-07-23T12:12:53;7.72;;;5.00;;
43845;SDS011;32485;51.112;13.640;2022-07-23T12:15:23;6.65;;;5.00;;
43845;SDS011;32485;51.112;13.640;2022-07-23T12:17:54;6.63;;;5.05;;
43845;SDS011;32485;51.112;13.640;2022-07-23T12:20:22;6.55;;;4.63;;
43845;SDS011;32485;51.112;13.640;2022-07-23T12:22:51;4.72;;;4.13;;
43845;SDS011;32485;51.112;13.640;2022-07-23T12:25:22;6.55;;;5.07;;
43845;SDS011;32485;51.112;13.640;2022-07-23T12:28:01;9.20;;;4.35;;
43845;SDS011;32485;51.112;13.640;2022-07-23T12:30:33;5.45;;;4.47;;
43845;SDS011;32485;51.112;13.640;2022-07-23T12:33:05;5.45;;;4.70;;
43845;SDS011;32485;51.112;13.640;2022-07-23T12:35:35;7.72;;;5.25;;
43845;SDS011;32485;51.112;13.640;2022-07-23T12:38:06;7.60;;;4.85;;
43845;SDS011;32485;51.112;13.640;2022-07-23T12:40:36;5.93;;;4.13;;
43845;SDS011;32485;51.112;13.640;2022-07-23T12:43:09;5.95;;;4.53;;
43845;SDS011;32485;51.112;13.640;2022-07-23T12:45:43;6.50;;;4.75;;
43845;SDS011;32485;51.112;13.640;2022-07-23T12:48:16;6.45;;;3.72;;
43845;SDS011;32485;51.112;13.640;2022-07-23T12:50:50;5.63;;;4.63;;
43845;SDS011;32485;51.112;13.640;2022-07-23T12:53:29;7.40;;;5.20;;
43845;SDS011;32485;51.112;13.640;2022-07-23T12:55:59;5.88;;;4.68;;
43845;SDS011;32485;51.112;13.640;2022-07-23T12:58:39;6.30;;;4.90;;
43845;SDS011;32485;51.112;13.640;2022-07-23T13:01:11;8.05;;;5.25;;
43845;SDS011;32485;51.112;13.640;2022-07-23T13:03:57;6.70;;;4.90;;
43845;SDS011;32485;51.112;13.640;2022-07-23T13:06:30;5.38;;;4.75;;
43845;SDS011;32485;51.112;13.640;2022-07-23T13:09:00;5.68;;;5.03;;
43845;SDS011;32485;51.112;13.640;2022-07-23T13:11:29;7.05;;;4.75;;
43845;SDS011;32485;51.112;13.640;2022-07-23T13:13:56;7.85;;;5.68;;
43845;SDS011;32485;51.112;13.640;2022-07-23T13:16:26;8.27;;;5.30;;
43845;SDS011;32485;51.112;13.640;2022-07-23T13:18:54;7.03;;;4.57;;
43845;SDS011;32485;51.112;13.640;2022-07-23T13:21:22;5.28;;;4.75;;
43845;SDS011;32485;51.112;13.640;2022-07-23T13:23:50;7.07;;;5.63;;
43845;SDS011;32485;51.112;13.640;2022-07-23T13:26:17;6.38;;;5.18;;
43845;SDS011;32485;51.112;13.640;2022-07-23T13:28:44;8.60;;;6.30;;
43845;SDS011;32485;51.112;13.640;2022-07-23T13:31:12;6.55;;;5.65;;
43845;SDS011;32485;51.112;13.640;2022-07-23T13:33:42;5.50;;;5.00;;
43845;SDS011;32485;51.112;13.640;2022-07-23T13:36:09;5.00;;;4.50;;
43845;SDS011;32485;51.112;13.640;2022-07-23T13:38:36;7.60;;;5.13;;
43845;SDS011;32485;51.112;13.640;2022-07-23T13:41:04;6.47;;;5.32;;
43845;SDS011;32485;51.112;13.640;2022-07-23T13:43:32;6.20;;;4.38;;
43845;SDS011;32485;51.112;13.640;2022-07-23T13:45:59;9.35;;;5.28;;
43845;SDS011;32485;51.112;13.640;2022-07-23T13:48:26;5.80;;;5.00;;
43845;SDS011;32485;51.112;13.640;2022-07-23T13:50:55;5.88;;;4.90;;
43845;SDS011;32485;51.112;13.640;2022-07-23T13:53:23;6.32;;;4.60;;
43845;SDS011;32485;51.112;13.640;2022-07-23T13:55:51;6.45;;;4.35;;
43845;SDS011;32485;51.112;13.640;2022-07-23T13:58:19;6.15;;;4.68;;
43845;SDS011;32485;51.112;13.640;2022-07-23T14:00:48;6.28;;;4.72;;
43845;SDS011;32485;51.112;13.640;2022-07-23T14:03:17;5.70;;;4.63;;
43845;SDS011;32485;51.112;13.640;2022-07-23T14:05:47;4.95;;;4.25;;
43845;SDS011;32485;51.112;13.640;2022-07-23T14:08:16;6.18;;;4.53;;
43845;SDS011;32485;51.112;13.640;2022-07-23T14:10:43;5.68;;;4.68;;
43845;SDS011;32485;51.112;13.640;2022-07-23T14:13:10;6.57;;;4.70;;
43845;SDS011;32485;51.112;13.640;2022-07-23T14:15:37;5.80;;;4.80;;
43845;SDS011;32485;51.112;13.640;2022-07-23T14:18:05;7.82;;;5.50;;
43845;SDS011;32485;51.112;13.640;2022-07-23T14:20:33;5.20;;;4.70;;
43845;SDS011;32485;51.112;13.640;2022-07-23T14:23:00;5.25;;;3.97;;
43845;SDS011;32485;51.112;13.640;2022-07-23T14:25:29;5.10;;;4.60;;
43845;SDS011;32485;51.112;13.640;2022-07-23T14:27:56;6.10;;;4.35;;
43845;SDS011;32485;51.112;13.640;2022-07-23T14:30:23;5.20;;;4.13;;
43845;SDS011;32485;51.112;13.640;2022-07-23T14:32:50;5.28;;;4.63;;
43845;SDS011;32485;51.112;13.640;2022-07-23T14:35:17;5.43;;;4.22;;
43845;SDS011;32485;51.112;13.640;2022-07-23T14:37:45;5.43;;;4.90;;
43845;SDS011;32485;51.112;13.640;2022-07-23T14:40:12;7.22;;;5.18;;
43845;SDS011;32485;51.112;13.640;2022-07-23T14:42:40;5.55;;;4.60;;
43845;SDS011;32485;51.112;13.640;2022-07-23T14:45:07;9.18;;;5.40;;
43845;SDS011;32485;51.112;13.640;2022-07-23T14:47:35;5.95;;;4.38;;
43845;SDS011;32485;51.112;13.640;2022-07-23T14:50:03;6.22;;;4.88;;
43845;SDS011;32485;51.112;13.640;2022-07-23T14:52:31;5.43;;;4.50;;
43845;SDS011;32485;51.112;13.640;2022-07-23T14:54:59;6.28;;;5.63;;
43845;SDS011;32485;51.112;13.640;2022-07-23T14:57:26;6.60;;;4.88;;
43845;SDS011;32485;51.112;13.640;2022-07-23T14:59:54;7.18;;;4.97;;
43845;SDS011;32485;51.112;13.640;2022-07-23T15:02:21;7.22;;;4.78;;
43845;SDS011;32485;51.112;13.640;2022-07-23T15:04:48;6.07;;;5.20;;
43845;SDS011;32485;51.112;13.640;2022-07-23T15:07:15;7.53;;;4.85;;
43845;SDS011;32485;51.112;13.640;2022-07-23T15:09:42;7.97;;;6.25;;
43845;SDS011;32485;51.112;13.640;2022-07-23T15:12:09;6.57;;;5.15;;
43845;SDS011;32485;51.112;13.640;2022-07-23T15:14:36;6.18;;;5.03;;
43845;SDS011;32485;51.112;13.640;2022-07-23T15:17:05;6.32;;;5.32;;